createdAt,value
2022-08-17T00:02:26.201Z,10.40
2022-08-17T00:04:55.548Z,10.30
2022-08-17T00:07:23.334Z,10.30
2022-08-17T00:09:50.926Z,10.30
2022-08-17T00:12:43.072Z,10.30
2022-08-17T00:15:10.748Z,10.20
2022-08-17T00:17:39.554Z,10.20
2022-08-17T00:20:07.557Z,10.20
2022-08-17T00:22:36.673Z,10.30
2022-08-17T00:25:07.483Z,10.30
2022-08-17T00:27:35.765Z,10.30
2022-08-17T00:30:06.015Z,10.30
2022-08-17T00:33:15.777Z,10.20
2022-08-17T00:35:27.908Z,10.30
2022-08-17T00:37:55.571Z,10.20
2022-08-17T00:40:24.906Z,10.20
2022-08-17T00:42:53.560Z,10.20
2022-08-17T00:45:21.200Z,10.10
2022-08-17T00:47:49.541Z,10.10
2022-08-17T00:50:19.904Z,10.10
2022-08-17T00:52:58.091Z,10.20
2022-08-17T00:55:26.449Z,10.20
2022-08-17T00:57:58.720Z,10.20
2022-08-17T01:00:32.467Z,10.20
2022-08-17T01:03:07.632Z,10.20
2022-08-17T01:05:38.865Z,10.20
2022-08-17T01:08:13.770Z,10.10
2022-08-17T01:10:59.735Z,10.10
2022-08-17T01:13:41.896Z,10.10
2022-08-17T01:16:18.657Z,10.10
2022-08-17T01:18:49.418Z,10.10
2022-08-17T01:21:28.852Z,10.10
2022-08-17T01:23:56.683Z,10.00
2022-08-17T01:26:24.239Z,10.00
2022-08-17T01:28:54.560Z,10.00
2022-08-17T01:31:28.114Z,10.10
2022-08-17T01:33:58.368Z,10.10
2022-08-17T01:36:25.981Z,10.10
2022-08-17T01:38:53.957Z,10.10
2022-08-17T01:41:22.321Z,10.10
2022-08-17T01:43:54.872Z,10.10
2022-08-17T01:46:28.091Z,10.10
2022-08-17T01:48:57.581Z,10.00
2022-08-17T01:51:32.713Z,10.00
2022-08-17T01:54:05.463Z,10.00
2022-08-17T01:56:35.554Z,10.10
2022-08-17T01:59:04.142Z,10.10
2022-08-17T02:01:34.637Z,10.20
2022-08-17T02:04:03.971Z,10.20
2022-08-17T02:06:52.753Z,10.10
2022-08-17T02:09:29.852Z,10.10
2022-08-17T02:12:37.337Z,10.10
2022-08-17T02:14:47.926Z,10.10
2022-08-17T02:17:15.464Z,10.00
2022-08-17T02:19:43.278Z,10.00
2022-08-17T02:22:10.824Z,10.00
2022-08-17T02:24:58.944Z,10.10
2022-08-17T02:27:26.812Z,10.00
2022-08-17T02:29:54.410Z,10.10
2022-08-17T02:32:28.216Z,10.10
2022-08-17T02:34:58.044Z,10.10
2022-08-17T02:37:26.721Z,10.00
2022-08-17T02:39:57.054Z,9.90
2022-08-17T02:42:41.948Z,9.90
2022-08-17T02:45:13.117Z,9.90
2022-08-17T02:47:41.794Z,9.80
2022-08-17T02:50:11.957Z,9.80
2022-08-17T02:52:43.987Z,9.70
2022-08-17T02:55:17.174Z,9.70
2022-08-17T02:57:45.539Z,9.70
2022-08-17T03:00:21.266Z,9.80
2022-08-17T03:02:49.985Z,9.70
2022-08-17T03:05:21.776Z,9.70
2022-08-17T03:07:49.347Z,9.60
2022-08-17T03:10:17.366Z,9.60
2022-08-17T03:12:46.152Z,9.60
2022-08-17T03:15:26.818Z,9.60
2022-08-17T03:17:56.735Z,9.60
2022-08-17T03:20:25.819Z,9.60
2022-08-17T03:23:01.869Z,9.60
2022-08-17T03:25:41.244Z,9.60
2022-08-17T03:28:14.789Z,9.70
2022-08-17T03:30:42.337Z,9.70
2022-08-17T03:33:10.405Z,9.80
2022-08-17T03:35:40.472Z,9.80
2022-08-17T03:38:10.586Z,9.80
2022-08-17T03:40:57.473Z,9.80
2022-08-17T03:43:28.390Z,9.80
2022-08-17T03:46:27.673Z,9.80
2022-08-17T03:49:15.410Z,9.90
2022-08-17T03:52:01.319Z,10.00
2022-08-17T03:54:47.632Z,9.90
2022-08-17T03:57:16.402Z,9.90
2022-08-17T03:59:45.035Z,10.00
2022-08-17T04:02:30.052Z,9.90
2022-08-17T04:04:58.006Z,9.90
2022-08-17T04:07:28.225Z,9.90
2022-08-17T04:09:55.878Z,10.00
2022-08-17T04:12:24.575Z,9.90
2022-08-17T04:14:54.754Z,9.90
2022-08-17T04:17:26.420Z,9.80
2022-08-17T04:19:55.382Z,9.90
2022-08-17T04:22:30.276Z,9.90
2022-08-17T04:24:59.808Z,9.90
2022-08-17T04:27:27.334Z,9.80
2022-08-17T04:29:56.079Z,9.90
2022-08-17T04:33:05.011Z,9.90
2022-08-17T04:35:11.569Z,9.90
2022-08-17T04:37:39.068Z,9.90
2022-08-17T04:40:26.501Z,9.90
2022-08-17T04:43:22.923Z,10.00
2022-08-17T04:45:56.031Z,9.90
2022-08-17T04:48:35.500Z,9.90
2022-08-17T04:51:11.819Z,9.90
2022-08-17T04:53:44.537Z,10.00
2022-08-17T04:56:18.318Z,10.00
2022-08-17T04:58:49.971Z,10.00
2022-08-17T05:01:23.802Z,10.10
2022-08-17T05:03:59.076Z,10.20
2022-08-17T05:06:28.497Z,10.20
2022-08-17T05:08:57.005Z,10.20
2022-08-17T05:11:26.272Z,10.30
2022-08-17T05:13:55.464Z,10.30
2022-08-17T05:16:24.512Z,10.30
2022-08-17T05:18:53.124Z,10.30
2022-08-17T05:21:22.154Z,10.30
2022-08-17T05:23:54.750Z,10.30
2022-08-17T05:26:26.038Z,10.40
2022-08-17T05:28:57.310Z,10.30
2022-08-17T05:31:28.830Z,10.30
2022-08-17T05:33:56.556Z,10.30
2022-08-17T05:36:37.919Z,10.40
2022-08-17T05:39:16.657Z,10.40
2022-08-17T05:41:48.325Z,10.40
2022-08-17T05:44:17.081Z,10.40
2022-08-17T05:46:50.259Z,10.40
2022-08-17T05:49:24.804Z,10.50
2022-08-17T05:52:20.757Z,10.40
2022-08-17T05:55:09.439Z,10.50
2022-08-17T05:57:57.210Z,10.50
2022-08-17T06:00:31.365Z,10.50
2022-08-17T06:03:17.247Z,10.60
2022-08-17T06:06:14.716Z,10.60
2022-08-17T06:09:28.908Z,10.60
2022-08-17T06:12:21.559Z,10.60
2022-08-17T06:14:52.191Z,10.60
2022-08-17T06:17:22.711Z,10.60
2022-08-17T06:20:02.841Z,10.60
2022-08-17T06:22:48.533Z,10.60
2022-08-17T06:25:23.281Z,10.60
2022-08-17T06:27:56.843Z,10.60
2022-08-17T06:30:28.251Z,10.70
2022-08-17T06:33:02.898Z,10.70
2022-08-17T06:36:09.234Z,10.70
2022-08-17T06:38:46.726Z,10.70
2022-08-17T06:41:49.649Z,10.70
2022-08-17T06:44:43.492Z,10.80
2022-08-17T06:47:30.242Z,10.80
2022-08-17T06:50:16.663Z,10.90
2022-08-17T06:52:53.298Z,10.90
2022-08-17T06:55:41.457Z,11.00
2022-08-17T06:58:16.431Z,11.00
2022-08-17T07:00:47.355Z,11.00
2022-08-17T07:03:20.947Z,11.00
2022-08-17T07:05:59.197Z,11.10
2022-08-17T07:08:38.225Z,11.10
2022-08-17T07:11:13.093Z,11.20
2022-08-17T07:13:51.739Z,11.20
2022-08-17T07:16:38.424Z,11.30
2022-08-17T07:19:07.425Z,11.30
2022-08-17T07:21:51.912Z,11.20
2022-08-17T07:24:31.360Z,11.20
2022-08-17T07:27:25.176Z,11.20
2022-08-17T07:30:10.573Z,11.10
2022-08-17T07:32:58.454Z,11.20
2022-08-17T07:35:31.280Z,11.30
2022-08-17T07:38:25.310Z,11.30
2022-08-17T07:41:03.410Z,11.50
2022-08-17T07:43:34.111Z,11.60
2022-08-17T07:46:40.286Z,11.70
2022-08-17T07:49:10.726Z,11.80
2022-08-17T07:51:41.053Z,11.90
2022-08-17T07:54:26.181Z,11.90
2022-08-17T07:57:13.358Z,12.00
2022-08-17T07:59:59.537Z,12.10
2022-08-17T08:02:40.909Z,12.20
2022-08-17T08:05:49.766Z,12.30
2022-08-17T08:08:21.809Z,12.20
2022-08-17T08:11:10.129Z,12.30
2022-08-17T08:13:45.132Z,12.30
2022-08-17T08:16:20.073Z,12.30
2022-08-17T08:18:54.253Z,12.40
2022-08-17T08:21:46.760Z,12.50
2022-08-17T08:24:45.410Z,12.70
2022-08-17T08:27:34.828Z,12.90
2022-08-17T08:30:19.736Z,13.00
2022-08-17T08:32:54.126Z,13.00
2022-08-17T08:35:26.761Z,13.00
2022-08-17T08:38:02.888Z,13.20
2022-08-17T08:40:41.260Z,13.20
2022-08-17T08:43:36.198Z,13.30
2022-08-17T08:46:12.704Z,13.20
2022-08-17T08:49:12.032Z,13.20
2022-08-17T08:51:52.568Z,13.40
2022-08-17T08:54:34.735Z,13.10
2022-08-17T08:57:34.113Z,13.10
2022-08-17T09:00:10.337Z,13.20
2022-08-17T09:02:46.434Z,13.30
2022-08-17T09:05:17.085Z,13.40
2022-08-17T09:08:20.933Z,13.40
2022-08-17T09:11:10.848Z,13.50
2022-08-17T09:13:59.761Z,13.80
2022-08-17T09:16:41.578Z,13.90
2022-08-17T09:19:17.087Z,13.90
2022-08-17T09:21:58.512Z,13.70
2022-08-17T09:24:35.724Z,13.60
2022-08-17T09:27:13.529Z,13.60
2022-08-17T09:29:50.033Z,13.80
2022-08-17T09:32:46.127Z,13.90
2022-08-17T09:35:19.993Z,14.10
2022-08-17T09:38:02.701Z,14.10
2022-08-17T09:40:50.034Z,14.20
2022-08-17T09:44:04.325Z,14.10
2022-08-17T09:46:40.981Z,13.90
2022-08-17T09:49:43.158Z,13.60
2022-08-17T09:52:31.460Z,13.80
2022-08-17T09:55:01.571Z,14.20
2022-08-17T09:57:54.003Z,14.60
2022-08-17T10:00:31.918Z,15.10
2022-08-17T10:03:09.717Z,15.50
2022-08-17T10:06:00.481Z,15.60
2022-08-17T10:08:54.087Z,16.10
2022-08-17T10:11:55.919Z,16.50
2022-08-17T10:14:43.613Z,16.70
2022-08-17T10:17:33.903Z,16.90
2022-08-17T10:20:12.920Z,17.30
2022-08-17T10:23:09.217Z,17.60
2022-08-17T10:26:01.770Z,17.70
2022-08-17T10:28:37.089Z,18.20
2022-08-17T10:34:19.170Z,18.60
2022-08-17T10:36:47.524Z,18.80
2022-08-17T10:39:21.679Z,18.20
2022-08-17T10:41:54.151Z,18.20
2022-08-17T10:44:44.893Z,17.90
2022-08-17T10:47:16.158Z,17.80
2022-08-17T10:49:54.203Z,17.50
2022-08-17T10:52:28.166Z,17.00
2022-08-17T10:54:58.117Z,16.20
2022-08-17T10:57:38.748Z,16.20
2022-08-17T11:00:18.727Z,16.10
2022-08-17T11:02:51.894Z,15.70
2022-08-17T11:05:19.579Z,15.80
2022-08-17T11:07:52.959Z,16.00
2022-08-17T11:10:42.730Z,16.00
2022-08-17T11:13:30.751Z,16.10
2022-08-17T11:16:25.762Z,16.00
2022-08-17T11:19:12.073Z,16.00
2022-08-17T11:21:50.502Z,15.60
2022-08-17T11:24:43.421Z,15.60
2022-08-17T11:27:35.155Z,15.80
2022-08-17T11:30:08.374Z,16.00
2022-08-17T11:32:47.177Z,16.10
2022-08-17T11:35:20.902Z,15.80
2022-08-17T11:37:54.206Z,16.00
2022-08-17T11:40:48.758Z,16.10
2022-08-17T11:43:32.851Z,16.00
2022-08-17T11:47:09.289Z,16.00
2022-08-17T11:50:01.714Z,16.60
2022-08-17T11:52:44.476Z,17.00
2022-08-17T11:55:41.903Z,17.00
2022-08-17T11:58:30.341Z,17.40
2022-08-17T12:01:02.855Z,17.70
2022-08-17T12:03:33.547Z,17.80
2022-08-17T12:06:04.247Z,17.50
2022-08-17T12:08:34.015Z,17.20
2022-08-17T12:11:01.639Z,17.60
2022-08-17T12:13:39.426Z,17.80
2022-08-17T12:16:10.078Z,17.50
2022-08-17T12:18:41.788Z,17.50
2022-08-17T12:21:28.041Z,17.60
2022-08-17T12:24:40.574Z,17.50
2022-08-17T12:27:10.707Z,16.90
2022-08-17T12:29:44.530Z,16.70
2022-08-17T12:32:20.228Z,16.10
2022-08-17T12:34:50.434Z,15.80
2022-08-17T12:37:32.464Z,15.60
2022-08-17T12:40:01.829Z,15.70
2022-08-17T12:42:39.393Z,15.70
2022-08-17T12:45:21.063Z,15.50
2022-08-17T12:47:48.706Z,15.60
2022-08-17T12:50:29.508Z,16.10
2022-08-17T12:53:02.055Z,16.50
2022-08-17T12:55:36.912Z,16.70
2022-08-17T12:58:06.049Z,17.00
2022-08-17T13:00:41.259Z,17.20
2022-08-17T13:03:20.245Z,17.10
2022-08-17T13:06:00.935Z,16.90
2022-08-17T13:08:41.179Z,16.60
2022-08-17T13:11:22.396Z,16.70
2022-08-17T13:13:54.808Z,16.60
2022-08-17T13:16:31.696Z,16.50
2022-08-17T13:19:15.669Z,16.30
2022-08-17T13:21:55.830Z,16.60
2022-08-17T13:24:38.380Z,16.80
2022-08-17T13:27:13.112Z,16.80
2022-08-17T13:29:53.141Z,16.50
2022-08-17T13:32:31.246Z,16.20
2022-08-17T13:35:14.324Z,15.90
2022-08-17T13:38:05.559Z,15.80
2022-08-17T13:40:45.163Z,15.80
2022-08-17T13:43:32.757Z,15.90
2022-08-17T13:46:10.608Z,15.90
2022-08-17T13:48:38.382Z,16.00
2022-08-17T13:51:14.331Z,16.00
2022-08-17T13:53:41.885Z,16.00
2022-08-17T13:56:36.940Z,16.30
2022-08-17T13:59:15.239Z,16.30
2022-08-17T14:01:53.173Z,16.20
2022-08-17T14:04:25.708Z,15.70
2022-08-17T14:06:59.419Z,15.70
2022-08-17T14:09:37.360Z,15.60
2022-08-17T14:12:16.269Z,15.80
2022-08-17T14:14:44.770Z,15.80
2022-08-17T14:17:13.264Z,15.60
2022-08-17T14:19:42.141Z,15.80
2022-08-17T14:22:16.771Z,16.00
2022-08-17T14:24:45.101Z,16.00
2022-08-17T14:27:12.723Z,16.00
2022-08-17T14:29:41.322Z,16.00
2022-08-17T14:32:21.033Z,16.20
2022-08-17T14:34:49.755Z,15.90
2022-08-17T14:37:18.760Z,15.60
2022-08-17T14:39:46.538Z,15.30
2022-08-17T14:42:15.579Z,15.60
2022-08-17T14:44:43.182Z,15.80
2022-08-17T14:47:14.957Z,16.00
2022-08-17T14:49:42.623Z,15.90
2022-08-17T14:52:13.002Z,15.70
2022-08-17T14:54:45.558Z,15.80
2022-08-17T14:57:25.843Z,15.90
2022-08-17T15:00:02.023Z,15.80
2022-08-17T15:02:31.087Z,15.70
2022-08-17T15:05:01.827Z,15.80
2022-08-17T15:07:30.720Z,15.90
2022-08-17T15:10:02.635Z,15.70
2022-08-17T15:12:33.697Z,15.80
2022-08-17T15:15:06.784Z,15.70
2022-08-17T15:17:44.413Z,15.50
2022-08-17T15:20:25.260Z,15.40
2022-08-17T15:22:55.551Z,15.70
2022-08-17T15:25:26.044Z,15.60
2022-08-17T15:27:55.537Z,15.60
2022-08-17T15:30:24.455Z,15.60
2022-08-17T15:32:55.309Z,15.50
2022-08-17T15:35:28.182Z,15.60
2022-08-17T15:38:07.977Z,15.50
2022-08-17T15:40:43.148Z,15.20
2022-08-17T15:43:26.527Z,15.20
2022-08-17T15:46:00.207Z,15.30
2022-08-17T15:48:41.562Z,15.50
2022-08-17T15:51:20.102Z,15.40
2022-08-17T15:53:57.099Z,15.50
2022-08-17T15:56:26.115Z,15.50
2022-08-17T15:58:55.254Z,15.40
2022-08-17T16:02:21.557Z,15.40
2022-08-17T16:04:28.427Z,15.30
2022-08-17T16:06:58.811Z,15.10
2022-08-17T16:09:26.515Z,15.00
2022-08-17T16:11:56.171Z,15.10
2022-08-17T16:14:32.471Z,15.20
2022-08-17T16:17:39.289Z,15.20
2022-08-17T16:19:54.483Z,15.20
2022-08-17T16:22:45.434Z,15.20
2022-08-17T16:25:21.306Z,15.20
2022-08-17T16:27:53.631Z,15.10
2022-08-17T16:30:24.578Z,15.10
2022-08-17T16:32:54.468Z,15.00
2022-08-17T16:35:26.372Z,15.10
2022-08-17T16:37:57.249Z,15.10
2022-08-17T16:40:28.862Z,15.00
2022-08-17T16:42:57.773Z,15.00
2022-08-17T16:45:28.809Z,14.90
2022-08-17T16:47:59.197Z,14.80
2022-08-17T16:50:26.791Z,14.70
2022-08-17T16:53:07.083Z,14.70
2022-08-17T16:55:35.813Z,14.60
2022-08-17T16:58:05.507Z,14.40
2022-08-17T17:00:33.877Z,14.30
2022-08-17T17:03:19.234Z,14.50
2022-08-17T17:06:07.371Z,14.60
2022-08-17T17:08:44.519Z,14.50
2022-08-17T17:11:34.950Z,14.50
2022-08-17T17:14:06.486Z,14.40
2022-08-17T17:16:52.643Z,14.50
2022-08-17T17:19:34.994Z,14.60
2022-08-17T17:22:15.001Z,14.50
2022-08-17T17:25:06.608Z,14.40
2022-08-17T17:27:50.572Z,14.40
2022-08-17T17:30:31.063Z,14.20
2022-08-17T17:33:15.141Z,14.00
2022-08-17T17:35:54.380Z,14.10
2022-08-17T17:38:30.043Z,14.10
2022-08-17T17:41:04.537Z,14.10
2022-08-17T17:43:39.773Z,14.00
2022-08-17T17:46:28.108Z,14.10
2022-08-17T17:48:57.549Z,14.10
2022-08-17T17:52:07.657Z,14.10
2022-08-17T17:54:32.645Z,13.90
2022-08-17T17:57:25.738Z,13.90
2022-08-17T18:00:08.330Z,13.80
2022-08-17T18:02:56.617Z,13.80
2022-08-17T18:05:48.701Z,13.80
2022-08-17T18:08:32.279Z,13.80
2022-08-17T18:11:10.403Z,13.90
2022-08-17T18:13:57.618Z,13.70
2022-08-17T18:16:28.447Z,13.70
2022-08-17T18:19:00.278Z,13.80
2022-08-17T18:21:39.406Z,13.80
2022-08-17T18:24:08.886Z,13.80
2022-08-17T18:26:44.690Z,13.70
2022-08-17T18:29:21.697Z,13.70
2022-08-17T18:31:52.587Z,13.80
2022-08-17T18:37:26.515Z,13.90
2022-08-17T18:39:54.118Z,13.90
2022-08-17T18:42:29.611Z,13.80
2022-08-17T18:44:57.270Z,13.80
2022-08-17T18:47:28.594Z,13.80
2022-08-17T18:50:17.582Z,13.70
2022-08-17T18:52:48.290Z,13.60
2022-08-17T18:55:29.061Z,13.60
2022-08-17T18:58:12.711Z,13.60
2022-08-17T19:00:43.822Z,13.50
2022-08-17T19:03:24.912Z,13.40
2022-08-17T19:05:55.477Z,13.50
2022-08-17T19:08:28.877Z,13.50
2022-08-17T19:11:09.633Z,13.40
2022-08-17T19:14:01.064Z,13.40
2022-08-17T19:16:53.393Z,13.30
2022-08-17T19:19:34.181Z,13.30
2022-08-17T19:22:28.735Z,13.40
2022-08-17T19:25:16.910Z,13.30
2022-08-17T19:27:57.900Z,13.40
2022-08-17T19:30:26.069Z,13.40
2022-08-17T19:32:57.106Z,13.40
2022-08-17T19:35:36.257Z,13.40
2022-08-17T19:38:15.522Z,13.30
2022-08-17T19:41:02.545Z,13.30
2022-08-17T19:43:59.282Z,13.30
2022-08-17T19:46:49.849Z,13.20
2022-08-17T19:49:22.785Z,13.20
2022-08-17T19:52:07.471Z,13.20
2022-08-17T19:54:44.160Z,13.10
2022-08-17T19:57:38.776Z,13.20
2022-08-17T20:00:13.424Z,13.20
2022-08-17T20:02:59.215Z,13.20
2022-08-17T20:05:48.751Z,13.10
2022-08-17T20:08:28.634Z,13.10
2022-08-17T20:11:10.337Z,13.00
2022-08-17T20:13:49.965Z,13.10
2022-08-17T20:16:19.369Z,13.00
2022-08-17T20:19:00.627Z,13.10
2022-08-17T20:21:34.317Z,13.10
2022-08-17T20:24:16.620Z,13.20
2022-08-17T20:26:58.163Z,13.20
2022-08-17T20:29:39.706Z,13.10
2022-08-17T20:32:18.304Z,13.10
2022-08-17T20:34:47.799Z,13.00
2022-08-17T20:37:15.362Z,13.10
2022-08-17T20:40:07.062Z,13.20
2022-08-17T20:42:35.931Z,13.10
2022-08-17T20:45:29.113Z,13.10
2022-08-17T20:48:24.022Z,13.10
2022-08-17T20:51:00.913Z,13.20
2022-08-17T20:53:54.780Z,13.20
2022-08-17T20:56:43.969Z,13.20
2022-08-17T20:59:27.599Z,13.20
2022-08-17T21:02:18.716Z,13.30
2022-08-17T21:04:54.515Z,13.20
2022-08-17T21:07:43.117Z,13.20
2022-08-17T21:10:17.253Z,13.20
2022-08-17T21:13:15.502Z,13.20
2022-08-17T21:15:48.512Z,13.10
2022-08-17T21:18:39.014Z,13.10
2022-08-17T21:21:34.144Z,13.00
2022-08-17T21:24:22.619Z,13.00
2022-08-17T21:27:11.554Z,13.00
2022-08-17T21:30:11.902Z,13.00
2022-08-17T21:32:41.992Z,13.00
2022-08-17T21:35:30.130Z,13.00
2022-08-17T21:38:05.167Z,13.00
2022-08-17T21:40:33.973Z,12.90
2022-08-17T21:43:17.044Z,12.90
2022-08-17T21:46:01.947Z,12.90
2022-08-17T21:48:32.534Z,12.90
2022-08-17T21:51:24.167Z,13.00
2022-08-17T21:53:55.928Z,12.90
2022-08-17T21:56:38.783Z,12.90
2022-08-17T21:59:19.806Z,12.80
2022-08-17T22:01:59.352Z,12.90
2022-08-17T22:04:39.202Z,12.80
2022-08-17T22:07:10.746Z,12.80
2022-08-17T22:09:48.596Z,12.80
2022-08-17T22:12:22.811Z,12.80
2022-08-17T22:15:01.478Z,12.80
2022-08-17T22:17:36.056Z,12.90
2022-08-17T22:20:14.514Z,12.90
2022-08-17T22:23:29.394Z,12.80
2022-08-17T22:26:02.920Z,12.80
2022-08-17T22:28:46.732Z,12.70
2022-08-17T22:31:18.003Z,12.70
2022-08-17T22:34:01.831Z,12.70
2022-08-17T22:36:33.110Z,12.70
2022-08-17T22:39:11.251Z,12.60
2022-08-17T22:41:43.758Z,12.60
2022-08-17T22:44:28.254Z,12.60
2022-08-17T22:47:00.579Z,12.60
2022-08-17T22:49:53.812Z,12.60
2022-08-17T22:52:32.051Z,12.70
2022-08-17T22:55:20.502Z,12.70
2022-08-17T22:58:07.920Z,12.70
2022-08-17T23:00:44.915Z,12.70
2022-08-17T23:03:17.821Z,12.70
2022-08-17T23:06:06.807Z,12.70
2022-08-17T23:08:39.227Z,12.70
2022-08-17T23:11:07.164Z,12.70
2022-08-17T23:13:36.763Z,12.70
2022-08-17T23:16:04.631Z,12.60
2022-08-17T23:18:32.192Z,12.70
2022-08-17T23:21:00.132Z,12.70
2022-08-17T23:23:27.664Z,12.70
2022-08-17T23:25:55.386Z,12.80
2022-08-17T23:28:22.990Z,12.70
2022-08-17T23:30:50.980Z,12.70
2022-08-17T23:33:30.143Z,12.70
2022-08-17T23:35:58.878Z,12.80
2022-08-17T23:38:27.382Z,12.70
2022-08-17T23:40:55.592Z,12.70
2022-08-17T23:43:25.680Z,12.70
2022-08-17T23:45:58.615Z,12.70
2022-08-17T23:48:35.307Z,12.70
2022-08-17T23:51:12.501Z,12.70
2022-08-17T23:53:46.411Z,12.80
2022-08-17T23:56:15.067Z,12.70
2022-08-17T23:58:44.851Z,12.70
